Lake Ann, Michigan
Current Conditions -  °F | °C
As of 11:53 PM on Monday 22 Dec 2014 (Local Time) from KTVC Reporting Station
Light Rain Light Rain  
Wind Chill: 29°   Ceiling: 1300
Heat Index: 34°   Visibility: 6mi
Dew Point: 30°   Wind: 6mph
Humidity: 85%   Direction: 100°E
Pressure: 29.84"   Gusts: NA
Location:  44.72°N, 85.84°W
Report Text: KTVC 230453Z AUTO 10005KT 6SM -RA BR BKN013 OVC028 01/M01 A2984 RMK AO2 SLP112 P0002 T00111011 400331011
Loading
Personal Weather Stations






























Interactive Weather Map New forecast layout! Learn more

10-Day Weather Forecast

Advertisements
Track Severe Weather on mobile